Time;durP1;ratioP1;P1;durP2;ratioP2;P2;SDS_P1;SDS_P2;PMS_P1;PMS_P2;Temp;Humidity;BMP_temperature;BMP_pressure;BME280_temperature;BME280_humidity;BME280_pressure;Samples;Min_cycle;Max_cycle;Signal;HPM_P1;HPM_P2
2024/04/18 00:01:27;;;;;;;3.43;2.97;;;6.20;99.90;;;;;;6527279;22;20457;-66
2024/04/18 00:03:57;;;;;;;2.97;2.20;;;6.20;99.90;;;;;;6526697;21;20464;-66
2024/04/18 00:06:27;;;;;;;2.17;1.67;;;6.20;99.90;;;;;;6526013;22;21172;-66
2024/04/18 00:08:59;;;;;;;2.70;1.70;;;6.10;99.90;;;;;;6525887;22;20456;-66
2024/04/18 00:11:33;;;;;;;2.10;1.87;;;6.10;99.90;;;;;;6521738;22;20452;-66
2024/04/18 00:13:59;;;;;;;2.63;1.97;;;6.10;99.90;;;;;;6526109;21;20802;-66
2024/04/18 00:16:27;;;;;;;3.60;2.37;;;6.10;99.90;;;;;;6525588;22;20464;-66
2024/04/18 00:18:56;;;;;;;3.40;2.13;;;6.00;99.90;;;;;;6526606;22;20690;-66
2024/04/18 00:21:25;;;;;;;3.37;2.33;;;6.00;99.90;;;;;;6526087;22;20453;-67
2024/04/18 00:23:52;;;;;;;3.33;2.30;;;6.00;99.90;;;;;;6526560;21;20468;-67
2024/04/18 00:26:20;;;;;;;2.90;2.70;;;6.00;99.90;;;;;;6526099;22;20463;-66
2024/04/18 00:28:49;;;;;;;3.70;1.87;;;6.00;99.90;;;;;;6526125;22;20464;-66
2024/04/18 00:31:17;;;;;;;2.20;1.23;;;5.90;99.90;;;;;;6526668;22;20449;-65
2024/04/18 00:33:43;;;;;;;1.60;1.43;;;5.80;99.90;;;;;;6526311;21;20504;-67
2024/04/18 00:36:12;;;;;;;2.50;1.97;;;5.80;99.90;;;;;;6528073;22;20457;-66
2024/04/18 00:38:38;;;;;;;1.63;1.47;;;5.70;99.90;;;;;;6528817;22;20444;-67
2024/04/18 00:41:08;;;;;;;2.30;1.33;;;5.70;99.90;;;;;;6528489;22;20505;-66
2024/04/18 00:43:35;;;;;;;2.17;1.20;;;5.70;99.90;;;;;;6528423;21;20523;-68
2024/04/18 00:46:08;;;;;;;2.70;1.60;;;5.60;99.90;;;;;;6527712;22;21068;-66
2024/04/18 00:48:34;;;;;;;2.40;1.60;;;5.60;99.90;;;;;;6527954;22;20452;-68
2024/04/18 00:51:04;;;;;;;2.20;1.60;;;5.60;99.90;;;;;;6528574;22;20461;-66
2024/04/18 00:53:31;;;;;;;2.40;1.60;;;5.60;99.90;;;;;;6527981;21;20460;-66
2024/04/18 00:56:00;;;;;;;1.93;1.50;;;5.50;99.90;;;;;;6527716;22;20452;-66
2024/04/18 00:58:26;;;;;;;2.53;1.53;;;5.50;99.90;;;;;;6528042;22;20776;-66
2024/04/18 01:00:56;;;;;;;2.63;1.43;;;5.50;99.90;;;;;;6527630;22;20543;-65
2024/04/18 01:03:24;;;;;;;2.27;1.73;;;5.60;99.90;;;;;;6528447;21;20451;-65
2024/04/18 01:05:53;;;;;;;2.70;1.63;;;5.50;99.90;;;;;;6528188;22;20556;-66
2024/04/18 01:08:19;;;;;;;3.03;1.83;;;5.50;99.90;;;;;;6528038;22;20448;-66
2024/04/18 01:10:48;;;;;;;2.60;1.57;;;5.50;99.90;;;;;;6527771;22;20505;-65
2024/04/18 01:13:14;;;;;;;4.77;2.27;;;5.40;99.90;;;;;;6527764;22;20460;-65
2024/04/18 01:15:42;;;;;;;2.50;1.57;;;5.40;99.90;;;;;;6527673;21;20468;-65
2024/04/18 01:18:08;;;;;;;2.60;1.57;;;5.40;99.90;;;;;;6527926;22;20448;-66
2024/04/18 01:20:40;;;;;;;2.70;1.80;;;5.40;99.90;;;;;;6527323;22;20504;-65
2024/04/18 01:23:06;;;;;;;2.27;1.70;;;5.30;99.90;;;;;;6528748;22;20452;-66
2024/04/18 01:25:34;;;;;;;3.90;2.00;;;5.30;99.90;;;;;;6528837;21;20476;-65
2024/04/18 01:28:03;;;;;;;2.27;1.60;;;5.30;99.90;;;;;;6529347;22;20761;-66
2024/04/18 01:30:32;;;;;;;2.37;1.73;;;5.30;99.90;;;;;;6528385;22;20536;-66
2024/04/18 01:32:58;;;;;;;2.13;1.30;;;5.30;99.90;;;;;;6527632;22;20504;-66
2024/04/18 01:35:26;;;;;;;2.13;1.77;;;5.40;99.90;;;;;;6527233;21;20825;-66
2024/04/18 01:37:52;;;;;;;2.50;1.90;;;5.40;99.90;;;;;;6527596;22;20453;-66
2024/04/18 01:40:21;;;;;;;1.83;1.47;;;5.30;99.90;;;;;;6527264;22;20771;-66
2024/04/18 01:42:47;;;;;;;4.10;1.97;;;5.30;99.90;;;;;;6527770;22;20501;-67
2024/04/18 01:45:18;;;;;;;2.30;1.47;;;5.40;99.90;;;;;;6526685;21;20465;-66
2024/04/18 01:47:44;;;;;;;2.23;1.77;;;5.30;99.90;;;;;;6526759;22;20460;-67
2024/04/18 01:50:13;;;;;;;2.30;1.63;;;5.40;99.90;;;;;;6527382;22;20512;-67
2024/04/18 01:52:39;;;;;;;2.07;1.43;;;5.40;99.90;;;;;;6527501;22;20445;-66
2024/04/18 01:55:09;;;;;;;2.70;1.90;;;5.30;99.90;;;;;;6526897;21;20874;-66
2024/04/18 01:57:36;;;;;;;2.60;2.03;;;5.30;99.90;;;;;;6527638;22;20763;-66
2024/04/18 02:00:05;;;;;;;2.47;2.00;;;5.30;99.90;;;;;;6527432;22;20456;-66
2024/04/18 02:02:34;;;;;;;3.13;2.00;;;5.30;99.90;;;;;;6527661;22;20456;-65
2024/04/18 02:05:02;;;;;;;4.03;2.93;;;5.30;99.90;;;;;;6526525;21;20965;-67
2024/04/18 02:07:28;;;;;;;2.87;2.23;;;5.30;99.90;;;;;;6527240;22;21115;-67
2024/04/18 02:09:57;;;;;;;4.37;2.20;;;5.30;99.90;;;;;;6527803;22;20465;-65
2024/04/18 02:12:23;;;;;;;3.97;2.30;;;5.20;99.90;;;;;;6527666;22;20448;-66
2024/04/18 02:14:51;;;;;;;6.00;3.07;;;5.20;99.90;;;;;;6526517;21;20518;-66
2024/04/18 02:17:17;;;;;;;4.33;2.27;;;5.20;99.90;;;;;;6527126;22;21066;-66
2024/04/18 02:19:48;;;;;;;2.50;2.20;;;5.20;99.90;;;;;;6526865;22;20452;-65
2024/04/18 02:22:14;;;;;;;3.17;2.17;;;5.10;99.90;;;;;;6527156;22;20949;-67
2024/04/18 02:25:08;;;;;;;5.33;2.77;;;5.10;99.90;;;;;;6526179;21;20894;-65
2024/04/18 02:27:34;;;;;;;4.63;2.47;;;5.10;99.90;;;;;;6527067;22;20535;-65
2024/04/18 02:30:02;;;;;;;2.27;1.97;;;5.00;99.90;;;;;;6527218;22;20456;-66
2024/04/18 02:32:28;;;;;;;6.30;2.70;;;4.90;99.90;;;;;;6527773;22;20457;-65
2024/04/18 02:35:00;;;;;;;2.83;1.90;;;4.90;99.90;;;;;;6526767;21;20521;-66
2024/04/18 02:37:25;;;;;;;4.63;2.20;;;4.90;99.90;;;;;;6527151;22;20495;-64
2024/04/18 02:39:54;;;;;;;5.70;3.30;;;4.90;99.90;;;;;;6527362;22;20461;-65
2024/04/18 02:42:20;;;;;;;2.80;2.43;;;4.90;99.90;;;;;;6527292;22;20453;-65
2024/04/18 02:44:49;;;;;;;3.20;2.20;;;4.80;99.90;;;;;;6526335;21;20483;-65
2024/04/18 02:47:15;;;;;;;5.47;2.97;;;4.80;99.90;;;;;;6526929;22;20945;-65
2024/04/18 02:49:43;;;;;;;4.00;2.60;;;4.80;99.90;;;;;;6526673;22;20456;-65
2024/04/18 02:52:12;;;;;;;2.67;1.70;;;4.80;99.90;;;;;;6526856;22;20444;-66
2024/04/18 02:54:41;;;;;;;5.33;2.77;;;4.80;99.90;;;;;;6525913;21;20536;-66
2024/04/18 02:57:07;;;;;;;2.70;1.80;;;4.80;99.90;;;;;;6526559;22;20770;-66
2024/04/18 02:59:35;;;;;;;7.10;2.33;;;4.70;99.90;;;;;;6526496;22;21069;-65
2024/04/18 03:02:04;;;;;;;4.37;1.90;;;4.70;99.90;;;;;;6526270;22;20771;-65
2024/04/18 03:04:33;;;;;;;2.30;1.63;;;4.70;99.90;;;;;;6526483;21;20566;-66
2024/04/18 03:06:59;;;;;;;4.20;2.03;;;4.70;99.90;;;;;;6526200;22;20570;-67
2024/04/18 03:09:31;;;;;;;2.70;2.13;;;4.70;99.90;;;;;;6526432;22;20998;-66
2024/04/18 03:11:57;;;;;;;2.90;2.00;;;4.70;99.90;;;;;;6527102;22;20461;-65
2024/04/18 03:14:26;;;;;;;3.30;2.20;;;4.70;99.90;;;;;;6526085;21;20513;-65
2024/04/18 03:16:51;;;;;;;2.73;1.93;;;4.70;99.90;;;;;;6527230;22;20592;-66
2024/04/18 03:19:21;;;;;;;4.03;2.10;;;4.70;99.90;;;;;;6526732;22;20452;-66
2024/04/18 03:21:49;;;;;;;2.30;1.80;;;4.70;99.90;;;;;;6526421;22;20717;-66
2024/04/18 03:24:19;;;;;;;4.37;3.00;;;4.60;99.90;;;;;;6526177;21;20588;-66
2024/04/18 03:26:48;;;;;;;4.33;2.40;;;4.60;99.90;;;;;;6526226;22;20765;-66
2024/04/18 03:29:17;;;;;;;4.07;2.20;;;4.60;99.90;;;;;;6526429;22;21016;-65
2024/04/18 03:31:46;;;;;;;4.20;2.20;;;4.60;99.90;;;;;;6526275;22;20513;-66
2024/04/18 03:34:15;;;;;;;3.97;1.90;;;4.50;99.90;;;;;;6525538;21;20922;-66
2024/04/18 03:36:43;;;;;;;2.63;2.10;;;4.50;99.90;;;;;;6526439;22;20480;-66
2024/04/18 03:39:11;;;;;;;3.50;2.30;;;4.60;99.90;;;;;;6525834;22;20531;-65
2024/04/18 03:41:41;;;;;;;4.83;2.50;;;4.50;99.90;;;;;;6526724;22;20464;-66
2024/04/18 03:44:12;;;;;;;2.40;2.03;;;4.60;99.90;;;;;;6526126;21;20472;-66
2024/04/18 03:46:41;;;;;;;3.83;3.07;;;4.50;99.90;;;;;;6528667;22;20852;-66
2024/04/18 03:49:10;;;;;;;3.50;2.47;;;4.50;99.90;;;;;;6528708;22;20770;-66
2024/04/18 03:51:36;;;;;;;4.00;2.07;;;4.50;99.90;;;;;;6528783;22;20516;-66
2024/04/18 03:54:05;;;;;;;2.30;2.00;;;4.50;99.90;;;;;;6526653;21;20480;-66
2024/04/18 03:56:30;;;;;;;2.90;2.03;;;4.50;99.90;;;;;;6526303;22;20816;-66
2024/04/18 03:59:01;;;;;;;4.63;2.20;;;4.40;99.90;;;;;;6526212;22;20445;-65
2024/04/18 04:01:29;;;;;;;3.60;2.47;;;4.40;99.90;;;;;;6526261;22;21146;-65
2024/04/18 04:03:58;;;;;;;6.27;3.33;;;4.40;99.90;;;;;;6525696;21;21107;-66
2024/04/18 04:06:24;;;;;;;5.07;2.80;;;4.40;99.90;;;;;;6525800;22;20588;-65
2024/04/18 04:08:53;;;;;;;3.23;2.07;;;4.40;99.90;;;;;;6525811;22;20793;-65
2024/04/18 04:11:19;;;;;;;3.37;1.93;;;4.40;99.90;;;;;;6525804;22;20456;-65
2024/04/18 04:13:47;;;;;;;2.87;2.57;;;4.40;99.90;;;;;;6526074;21;20520;-65
2024/04/18 04:16:14;;;;;;;6.00;1.93;;;4.40;99.90;;;;;;6525616;22;20516;-65
2024/04/18 04:18:49;;;;;;;3.00;2.27;;;4.40;99.90;;;;;;6525829;22;20448;-66
2024/04/18 04:21:15;;;;;;;3.63;2.27;;;4.40;99.90;;;;;;6527213;22;20813;-66
2024/04/18 04:23:44;;;;;;;4.90;2.40;;;4.50;99.90;;;;;;6527225;21;20460;-66
2024/04/18 04:26:10;;;;;;;3.10;1.93;;;4.50;99.90;;;;;;6526426;22;20452;-66
2024/04/18 04:28:38;;;;;;;6.93;2.10;;;4.50;99.90;;;;;;6526689;22;20502;-65
2024/04/18 04:31:04;;;;;;;8.00;2.47;;;4.50;99.90;;;;;;6530264;22;20464;-65
2024/04/18 04:33:35;;;;;;;3.17;2.03;;;4.50;99.90;;;;;;6529969;21;20763;-66
2024/04/18 04:36:04;;;;;;;2.73;2.13;;;4.40;99.90;;;;;;6527433;22;20460;-66
2024/04/18 04:38:32;;;;;;;4.07;2.63;;;4.40;99.90;;;;;;6529316;22;20464;-65
2024/04/18 04:40:58;;;;;;;3.67;2.70;;;4.40;99.90;;;;;;6530687;22;20806;-66
2024/04/18 04:43:27;;;;;;;5.60;3.07;;;4.40;99.90;;;;;;6528742;21;20509;-66
2024/04/18 04:45:56;;;;;;;4.90;2.90;;;4.50;99.90;;;;;;6526601;22;20464;-66
2024/04/18 04:48:24;;;;;;;4.27;2.70;;;4.50;99.90;;;;;;6529550;22;20456;-65
2024/04/18 04:50:56;;;;;;;5.40;3.57;;;4.50;99.90;;;;;;6530937;22;20460;-66
2024/04/18 04:53:28;;;;;;;3.60;2.40;;;4.50;99.90;;;;;;6531690;21;20839;-66
2024/04/18 04:55:54;;;;;;;6.80;2.97;;;4.50;99.90;;;;;;6527358;22;20469;-67
2024/04/18 04:58:22;;;;;;;4.10;2.60;;;4.50;99.90;;;;;;6527137;22;20749;-65
2024/04/18 05:00:49;;;;;;;5.07;3.00;;;4.60;99.90;;;;;;6526058;22;20532;-66
2024/04/18 05:03:17;;;;;;;6.27;3.00;;;4.70;99.90;;;;;;6526623;22;20512;-66
2024/04/18 05:05:44;;;;;;;3.73;2.43;;;4.70;99.90;;;;;;6525882;22;20967;-65
2024/04/18 05:08:13;;;;;;;10.67;4.57;;;4.80;99.90;;;;;;6525795;22;20504;-66
2024/04/18 05:10:43;;;;;;;8.50;5.17;;;4.80;99.90;;;;;;6526087;22;20460;-66
2024/04/18 05:13:14;;;;;;;6.37;3.50;;;4.90;99.90;;;;;;6525876;22;20460;-65
2024/04/18 05:15:40;;;;;;;7.50;4.40;;;4.90;99.90;;;;;;6525426;21;20961;-66
2024/04/18 05:18:10;;;;;;;5.73;3.77;;;5.00;99.90;;;;;;6525836;22;20560;-66
2024/04/18 05:20:37;;;;;;;12.17;4.30;;;5.00;99.90;;;;;;6526438;22;20487;-66
2024/04/18 05:23:06;;;;;;;6.80;3.53;;;5.10;99.90;;;;;;6528627;22;20457;-65
2024/04/18 05:25:33;;;;;;;7.90;3.40;;;5.10;99.90;;;;;;6528224;21;20468;-65
2024/04/18 05:28:10;;;;;;;5.87;4.00;;;5.20;99.90;;;;;;6529614;22;20457;-65
2024/04/18 05:33:24;;;;;;;11.67;3.80;;;5.30;99.90;;;;;;6532596;21;20560;-66
2024/04/18 05:35:53;;;;;;;4.33;2.90;;;5.40;99.90;;;;;;6528723;22;20513;-67
2024/04/18 05:38:22;;;;;;;3.77;2.80;;;5.50;99.90;;;;;;6529008;22;20487;-66
2024/04/18 05:40:51;;;;;;;5.47;2.97;;;5.50;99.90;;;;;;6528962;22;20452;-65
2024/04/18 05:43:24;;;;;;;6.30;3.97;;;5.50;99.90;;;;;;6528492;21;20805;-65
2024/04/18 05:45:53;;;;;;;6.33;3.30;;;5.50;99.90;;;;;;6528436;22;20467;-66
2024/04/18 05:48:22;;;;;;;7.80;4.17;;;5.60;99.90;;;;;;6528842;22;20457;-65
2024/04/18 05:50:50;;;;;;;8.20;4.67;;;5.60;99.90;;;;;;6528578;22;20969;-66
2024/04/18 05:53:19;;;;;;;5.37;3.30;;;5.70;99.90;;;;;;6528088;22;20816;-66
2024/04/18 05:55:48;;;;;;;7.77;4.10;;;5.70;99.90;;;;;;6526979;22;20444;-65
2024/04/18 05:58:17;;;;;;;9.70;4.47;;;5.70;99.90;;;;;;6528139;22;20533;-66
2024/04/18 06:00:48;;;;;;;9.70;3.73;;;5.80;99.90;;;;;;6528588;22;20460;-65
2024/04/18 06:03:18;;;;;;;8.53;4.30;;;5.80;99.90;;;;;;6528064;22;20457;-66
2024/04/18 06:05:46;;;;;;;11.80;4.70;;;5.90;99.90;;;;;;6527920;22;20827;-66
2024/04/18 06:08:15;;;;;;;9.33;4.33;;;6.00;99.90;;;;;;6527540;22;20452;-66
2024/04/18 06:10:44;;;;;;;8.80;4.30;;;6.10;99.90;;;;;;6528625;22;20448;-67
2024/04/18 06:13:13;;;;;;;6.60;4.83;;;6.10;99.90;;;;;;6529124;22;20468;-67
2024/04/18 06:15:44;;;;;;;8.90;4.17;;;6.20;99.90;;;;;;6529437;21;20465;-66
2024/04/18 06:18:15;;;;;;;9.27;4.80;;;6.30;99.90;;;;;;6528177;22;20501;-67
2024/04/18 06:20:45;;;;;;;7.07;4.50;;;6.30;99.90;;;;;;6528372;22;20990;-66
2024/04/18 06:23:14;;;;;;;8.37;4.83;;;6.40;99.90;;;;;;6528881;22;20572;-66
2024/04/18 06:25:41;;;;;;;11.33;4.07;;;6.40;99.90;;;;;;6527124;21;20512;-66
2024/04/18 06:28:12;;;;;;;11.43;5.17;;;6.50;99.90;;;;;;6527723;22;20465;-67
2024/04/18 06:30:41;;;;;;;8.97;3.10;;;6.60;99.90;;;;;;6528830;22;20953;-70
2024/04/18 06:33:09;;;;;;;6.43;3.27;;;6.70;99.90;;;;;;6527800;22;20811;-67
2024/04/18 06:35:40;;;;;;;4.37;3.00;;;6.80;99.90;;;;;;6526985;21;20829;-65
2024/04/18 06:38:09;;;;;;;6.50;3.40;;;6.90;99.90;;;;;;6527325;22;20460;-66
2024/04/18 06:40:38;;;;;;;5.53;2.70;;;7.00;99.90;;;;;;6527176;22;20970;-65
2024/04/18 06:43:07;;;;;;;6.20;2.80;;;7.00;99.90;;;;;;6527078;22;20460;-66
2024/04/18 06:45:38;;;;;;;4.47;2.57;;;7.10;99.90;;;;;;6526328;21;20465;-65
2024/04/18 06:48:08;;;;;;;4.20;2.57;;;7.10;99.90;;;;;;6528058;22;20500;-66
2024/04/18 06:50:39;;;;;;;7.67;2.40;;;7.10;99.90;;;;;;6528227;22;20564;-66
2024/04/18 06:53:08;;;;;;;3.70;2.27;;;7.20;99.90;;;;;;6528057;22;20548;-65
2024/04/18 06:55:38;;;;;;;10.23;2.40;;;7.20;99.90;;;;;;6527635;21;20468;-66
2024/04/18 06:58:04;;;;;;;4.43;2.33;;;7.30;99.90;;;;;;6527542;21;20456;-65
2024/04/18 07:00:33;;;;;;;4.60;1.83;;;7.30;99.90;;;;;;6527783;22;20461;-65
2024/04/18 07:03:02;;;;;;;3.00;2.10;;;7.40;99.90;;;;;;6527643;22;20782;-65
2024/04/18 07:05:31;;;;;;;3.50;2.20;;;7.50;99.90;;;;;;6523796;21;20477;-65
2024/04/18 07:08:02;;;;;;;5.10;2.17;;;7.70;99.90;;;;;;6526392;22;20456;-65
2024/04/18 07:10:28;;;;;;;5.03;2.10;;;7.80;99.90;;;;;;6527359;22;20468;-66
2024/04/18 07:12:56;;;;;;;2.80;1.73;;;8.00;99.90;;;;;;6527355;22;20537;-65
2024/04/18 07:15:25;;;;;;;2.70;1.47;;;8.10;99.90;;;;;;6526242;21;20460;-65
2024/04/18 07:17:56;;;;;;;9.03;2.07;;;8.20;99.90;;;;;;6526830;22;20457;-67
2024/04/18 07:20:24;;;;;;;2.60;1.93;;;8.20;99.90;;;;;;6527095;22;20579;-66
2024/04/18 07:22:50;;;;;;;3.10;2.30;;;8.20;99.90;;;;;;6526872;22;20953;-65
2024/04/18 07:25:22;;;;;;;3.23;1.70;;;8.30;99.90;;;;;;6526149;21;20472;-66
2024/04/18 07:27:50;;;;;;;2.47;1.40;;;8.30;99.90;;;;;;6526793;22;20448;-67
2024/04/18 07:30:20;;;;;;;2.40;1.60;;;8.40;99.90;;;;;;6526469;22;20866;-67
2024/04/18 07:32:51;;;;;;;2.33;1.60;;;8.40;99.90;;;;;;6526610;22;20541;-67
2024/04/18 07:35:19;;;;;;;2.13;1.47;;;8.50;99.90;;;;;;6525250;21;20472;-67
2024/04/18 07:37:51;;;;;;;6.30;1.50;;;8.50;99.90;;;;;;6526048;22;20452;-64
2024/04/18 07:40:23;;;;;;;4.50;1.90;;;8.60;99.90;;;;;;6526793;22;20464;-65
2024/04/18 07:42:53;;;;;;;2.23;1.00;;;8.60;99.90;;;;;;6527066;22;20464;-65
2024/04/18 07:45:24;;;;;;;2.00;1.23;;;8.70;99.90;;;;;;6524988;21;20520;-67
2024/04/18 07:47:52;;;;;;;2.17;1.40;;;8.80;99.90;;;;;;6525029;22;20457;-66
2024/04/18 07:50:24;;;;;;;2.10;1.07;;;9.00;99.90;;;;;;6526220;22;20512;-66
2024/04/18 07:52:52;;;;;;;3.23;1.73;;;9.10;99.90;;;;;;6526294;22;20507;-61
2024/04/18 07:55:25;;;;;;;2.90;1.77;;;9.30;99.90;;;;;;6525824;21;20533;-66
2024/04/18 07:57:56;;;;;;;1.20;1.00;;;9.60;99.90;;;;;;6526217;22;20509;-67
2024/04/18 08:00:25;;;;;;;1.50;0.90;;;10.90;99.90;;;;;;6526224;22;20982;-65
2024/04/18 08:02:53;;;;;;;2.90;1.43;;;12.80;99.90;;;;;;6526216;22;20503;-66
2024/04/18 08:05:22;;;;;;;1.57;1.13;;;15.10;99.90;;;;;;6524766;21;21047;-64
2024/04/18 08:07:52;;;;;;;2.77;1.03;;;17.40;90.50;;;;;;6525720;22;20460;-66
2024/04/18 08:10:24;;;;;;;2.60;1.40;;;19.20;74.60;;;;;;6526301;22;20501;-66
2024/04/18 08:12:53;;;;;;;1.37;1.20;;;20.40;63.50;;;;;;6526192;22;20459;-66
2024/04/18 08:15:21;;;;;;;1.77;1.20;;;21.80;58.90;;;;;;6525395;21;20580;-63
2024/04/18 08:17:50;;;;;;;1.40;1.20;;;22.90;54.00;;;;;;6525882;22;20456;-66
2024/04/18 08:20:19;;;;;;;2.53;1.60;;;23.30;50.50;;;;;;6526533;22;20460;-66
2024/04/18 08:22:50;;;;;;;4.90;1.73;;;23.70;48.50;;;;;;6526309;22;20460;-65
2024/04/18 08:25:18;;;;;;;2.47;1.60;;;24.10;45.90;;;;;;6524532;21;20479;-66
2024/04/18 08:27:50;;;;;;;1.93;1.30;;;24.50;44.90;;;;;;6526103;22;20566;-66
2024/04/18 08:30:19;;;;;;;1.93;1.50;;;24.20;43.30;;;;;;6527512;22;20805;-65
2024/04/18 08:32:49;;;;;;;2.23;1.50;;;24.00;43.30;;;;;;6528982;22;20447;-65
2024/04/18 08:35:21;;;;;;;1.97;1.30;;;24.10;43.20;;;;;;6533310;21;20618;-66
2024/04/18 08:37:50;;;;;;;1.80;1.30;;;23.90;42.50;;;;;;6536762;22;20460;-66
2024/04/18 08:40:19;;;;;;;4.43;1.40;;;23.40;42.90;;;;;;6532906;22;20551;-67
2024/04/18 08:42:52;;;;;;;1.60;1.03;;;23.40;42.80;;;;;;6526968;22;20461;-68
2024/04/18 08:45:27;;;;;;;2.10;1.20;;;22.20;43.00;;;;;;6525824;21;20471;-65
2024/04/18 08:47:59;;;;;;;1.20;1.10;;;20.60;44.30;;;;;;6526961;22;20518;-65
2024/04/18 08:50:31;;;;;;;2.70;0.90;;;20.60;45.90;;;;;;6527178;22;20491;-65
2024/04/18 08:53:02;;;;;;;1.30;1.00;;;21.20;45.30;;;;;;6526956;22;20568;-65
2024/04/18 08:55:34;;;;;;;1.20;1.03;;;21.70;44.50;;;;;;6526307;21;20476;-66
2024/04/18 08:58:10;;;;;;;2.50;1.40;;;21.70;44.10;;;;;;6527896;22;20451;-63
2024/04/18 09:00:42;;;;;;;2.40;1.10;;;21.30;44.30;;;;;;6527880;22;20499;-65
2024/04/18 09:03:12;;;;;;;1.30;1.03;;;21.50;43.50;;;;;;6528816;22;20511;-64
2024/04/18 09:05:40;;;;;;;1.73;1.10;;;20.80;43.90;;;;;;6529468;21;20509;-66
2024/04/18 09:08:12;;;;;;;2.70;1.50;;;20.90;44.70;;;;;;6529044;22;20463;-65
2024/04/18 09:10:42;;;;;;;1.97;1.43;;;21.10;44.70;;;;;;6528805;22;20978;-66
2024/04/18 09:13:14;;;;;;;1.40;1.30;;;20.30;43.90;;;;;;6527459;22;20763;-65
2024/04/18 09:15:42;;;;;;;1.27;1.00;;;19.10;44.80;;;;;;6528041;21;20468;-64
2024/04/18 09:18:11;;;;;;;1.70;1.00;;;18.20;46.30;;;;;;6528441;22;20485;-66
2024/04/18 09:20:38;;;;;;;2.90;1.00;;;17.40;46.80;;;;;;6527921;22;20558;-68
2024/04/18 09:23:11;;;;;;;2.00;1.10;;;16.70;48.00;;;;;;6528195;22;20816;-68
2024/04/18 09:25:40;;;;;;;1.97;0.83;;;16.10;49.40;;;;;;6529115;21;20823;-66
2024/04/18 09:28:06;;;;;;;4.20;1.73;;;15.50;49.70;;;;;;6530700;22;20513;-65
2024/04/18 09:30:39;;;;;;;1.97;1.00;;;14.90;51.30;;;;;;6528972;22;20460;-64
2024/04/18 09:33:14;;;;;;;3.00;1.10;;;14.40;52.00;;;;;;6527550;22;20460;-67
2024/04/18 09:35:48;;;;;;;1.40;1.10;;;14.00;52.30;;;;;;6526762;21;20531;-65
2024/04/18 09:38:19;;;;;;;1.93;1.00;;;13.50;52.80;;;;;;6527245;22;20521;-63
2024/04/18 09:40:59;;;;;;;1.60;0.90;;;13.30;53.50;;;;;;6527846;22;21005;-64
2024/04/18 09:43:38;;;;;;;1.20;0.87;;;13.10;54.30;;;;;;6527383;21;20509;-66
2024/04/18 09:46:12;;;;;;;1.50;0.90;;;13.00;54.60;;;;;;6527472;22;20579;-66
2024/04/18 09:48:43;;;;;;;2.13;1.53;;;13.00;55.80;;;;;;6527398;22;20584;-67
2024/04/18 09:51:13;;;;;;;1.30;1.07;;;13.00;54.80;;;;;;6527589;22;20536;-66
2024/04/18 09:53:43;;;;;;;1.20;0.80;;;13.10;55.30;;;;;;6527773;21;20989;-66
2024/04/18 09:56:12;;;;;;;1.93;0.97;;;13.10;54.50;;;;;;6527264;22;20765;-66
2024/04/18 09:58:41;;;;;;;1.80;1.13;;;13.30;55.20;;;;;;6528056;22;20456;-65
2024/04/18 10:01:16;;;;;;;1.53;0.80;;;13.60;55.00;;;;;;6528085;22;20444;-65
2024/04/18 10:03:47;;;;;;;1.60;1.00;;;13.80;55.10;;;;;;6537430;21;21182;-63
2024/04/18 10:06:20;;;;;;;5.50;2.90;;;14.00;57.20;;;;;;6604824;21;20443;-63
2024/04/18 10:08:52;;;;;;;3.73;1.23;;;14.40;57.10;;;;;;6589977;21;20547;-62
2024/04/18 10:11:29;;;;;;;1.47;1.20;;;14.00;56.10;;;;;;6552673;21;20468;-62
2024/04/18 10:14:03;;;;;;;1.70;0.87;;;13.30;56.10;;;;;;6552357;21;20445;-62
2024/04/18 10:16:34;;;;;;;1.60;0.80;;;13.00;55.50;;;;;;6550099;21;20889;-62
2024/04/18 10:19:12;;;;;;;1.67;0.90;;;12.70;56.10;;;;;;6553384;21;20476;-64
2024/04/18 10:21:41;;;;;;;3.90;1.20;;;12.50;57.30;;;;;;6552332;22;20452;-64
2024/04/18 10:24:14;;;;;;;2.27;1.00;;;12.30;58.10;;;;;;6551143;22;20504;-64
2024/04/18 10:26:43;;;;;;;1.97;1.07;;;12.20;57.80;;;;;;6552544;22;20512;-63
2024/04/18 10:29:26;;;;;;;1.97;0.90;;;12.20;58.50;;;;;;6551640;21;20472;-62
2024/04/18 10:31:59;;;;;;;1.30;0.83;;;12.50;58.80;;;;;;6552150;22;20452;-63
2024/04/18 10:34:29;;;;;;;1.43;0.90;;;12.60;56.80;;;;;;6554761;21;20489;-63
2024/04/18 10:37:02;;;;;;;1.53;0.90;;;12.70;57.00;;;;;;6554140;21;21042;-62
2024/04/18 10:42:08;;;;;;;1.67;0.90;;;12.70;57.10;;;;;;6579494;21;20528;-66
2024/04/18 10:44:38;;;;;;;6.00;1.30;;;12.70;57.40;;;;;;6551307;21;20476;-66
2024/04/18 10:47:10;;;;;;;1.10;0.80;;;12.80;57.40;;;;;;6527135;22;20452;-64
2024/04/18 10:49:40;;;;;;;3.03;1.30;;;12.70;58.10;;;;;;6526769;22;20532;-65
2024/04/18 10:52:10;;;;;;;2.10;1.70;;;12.70;58.70;;;;;;6527965;22;20461;-66
2024/04/18 10:54:40;;;;;;;1.57;1.10;;;12.70;59.40;;;;;;6526642;21;20572;-65
2024/04/18 10:57:18;;;;;;;1.27;0.90;;;12.60;58.50;;;;;;6527973;22;20457;-65
2024/04/18 10:59:47;;;;;;;1.77;1.40;;;12.50;58.50;;;;;;6528563;22;20460;-65
2024/04/18 11:02:18;;;;;;;2.10;1.07;;;12.40;59.50;;;;;;6529042;22;20448;-66
2024/04/18 11:04:47;;;;;;;3.00;1.37;;;12.20;61.40;;;;;;6528709;21;20476;-65
2024/04/18 11:07:15;;;;;;;2.23;1.10;;;12.20;62.30;;;;;;6526895;22;20461;-65
2024/04/18 11:09:44;;;;;;;1.70;0.93;;;12.20;63.10;;;;;;6526601;22;20456;-65
2024/04/18 11:12:14;;;;;;;3.07;1.17;;;12.20;63.10;;;;;;6527245;22;20457;-66
2024/04/18 11:14:44;;;;;;;1.47;1.00;;;12.10;64.40;;;;;;6526374;21;20468;-64
2024/04/18 11:17:12;;;;;;;4.00;1.37;;;12.20;67.60;;;;;;6526640;22;20508;-66
2024/04/18 11:19:44;;;;;;;1.80;1.00;;;12.10;68.30;;;;;;6525779;22;20457;-66
2024/04/18 11:22:13;;;;;;;1.20;0.90;;;12.20;70.70;;;;;;6526766;22;20460;-66
2024/04/18 11:24:43;;;;;;;2.40;1.37;;;12.30;69.90;;;;;;6526485;21;20460;-66
2024/04/18 11:27:12;;;;;;;2.60;1.10;;;12.40;69.70;;;;;;6527132;22;20503;-64
2024/04/18 11:29:46;;;;;;;1.10;0.90;;;12.50;67.90;;;;;;6527298;22;20517;-66
2024/04/18 11:32:15;;;;;;;1.30;0.93;;;12.40;68.40;;;;;;6527537;22;20452;-65
2024/04/18 11:34:47;;;;;;;1.07;0.77;;;12.40;67.60;;;;;;6527574;21;20508;-66
2024/04/18 11:37:16;;;;;;;5.90;1.10;;;12.20;67.10;;;;;;6527378;22;20516;-65
2024/04/18 11:39:45;;;;;;;2.50;1.10;;;12.20;79.30;;;;;;6527440;22;20511;-65
2024/04/18 11:42:14;;;;;;;2.60;0.80;;;12.60;73.60;;;;;;6528099;22;20449;-65
2024/04/18 11:44:44;;;;;;;3.10;0.90;;;12.60;69.60;;;;;;6526190;21;20529;-64
2024/04/18 11:47:12;;;;;;;2.10;1.20;;;12.40;69.80;;;;;;6526824;22;20460;-66
2024/04/18 11:49:42;;;;;;;1.97;0.80;;;12.00;69.60;;;;;;6525858;22;20513;-66
2024/04/18 11:52:13;;;;;;;2.40;0.93;;;11.80;70.70;;;;;;6526045;22;20568;-65
2024/04/18 11:54:43;;;;;;;3.37;0.97;;;11.60;72.60;;;;;;6526581;21;20981;-65
2024/04/18 11:57:12;;;;;;;2.23;0.90;;;11.50;73.60;;;;;;6526731;22;20634;-64
2024/04/18 11:59:43;;;;;;;2.93;1.47;;;11.50;73.80;;;;;;6525958;22;20501;-65
2024/04/18 12:02:12;;;;;;;1.70;1.20;;;11.50;73.80;;;;;;6527168;22;20878;-61
2024/04/18 12:04:40;;;;;;;1.53;0.90;;;11.70;75.40;;;;;;6526321;21;20545;-63
2024/04/18 12:07:09;;;;;;;1.20;1.00;;;12.00;73.80;;;;;;6526933;22;20457;-66
2024/04/18 12:09:45;;;;;;;2.10;1.40;;;12.20;73.20;;;;;;6526696;22;20524;-65
2024/04/18 12:12:14;;;;;;;1.50;0.90;;;12.40;73.30;;;;;;6526624;22;20459;-68
2024/04/18 12:14:46;;;;;;;6.63;1.13;;;12.60;73.20;;;;;;6526155;21;20781;-65
2024/04/18 12:17:16;;;;;;;1.03;0.93;;;12.70;69.30;;;;;;6526866;22;20448;-66
2024/04/18 12:19:45;;;;;;;2.53;0.90;;;12.70;70.00;;;;;;6526929;22;20750;-64
2024/04/18 12:22:28;;;;;;;2.03;0.80;;;12.60;68.60;;;;;;6526611;22;20516;-66
2024/04/18 12:25:01;;;;;;;1.83;1.10;;;12.60;68.30;;;;;;6525846;21;20977;-66
2024/04/18 12:27:33;;;;;;;1.23;0.90;;;12.60;67.90;;;;;;6526950;22;20449;-67
2024/04/18 12:30:02;;;;;;;1.30;0.97;;;12.50;68.50;;;;;;6525851;22;20585;-66
2024/04/18 12:32:31;;;;;;;2.60;1.10;;;12.80;69.20;;;;;;6528970;22;20453;-66
2024/04/18 12:35:00;;;;;;;2.03;1.03;;;13.00;69.10;;;;;;6527944;21;20468;-66
2024/04/18 12:37:29;;;;;;;2.80;1.10;;;12.80;66.90;;;;;;6528939;22;20503;-66
2024/04/18 12:40:05;;;;;;;1.43;0.80;;;12.80;68.10;;;;;;6528766;22;20509;-67
2024/04/18 12:42:37;;;;;;;1.27;1.00;;;12.80;67.00;;;;;;6528358;22;20781;-67
2024/04/18 12:45:09;;;;;;;3.17;0.93;;;12.90;67.40;;;;;;6528092;21;20472;-65
2024/04/18 12:47:41;;;;;;;2.33;1.47;;;13.10;66.80;;;;;;6528362;22;20440;-66
2024/04/18 12:50:12;;;;;;;3.93;1.37;;;13.40;67.00;;;;;;6528145;22;21000;-66
2024/04/18 12:52:43;;;;;;;2.13;1.10;;;13.60;64.70;;;;;;6527957;22;20520;-66
2024/04/18 12:55:15;;;;;;;1.00;0.70;;;13.90;65.00;;;;;;6527865;21;21016;-68
2024/04/18 12:57:44;;;;;;;1.03;0.90;;;14.00;62.90;;;;;;6527519;22;20464;-66
2024/04/18 13:00:16;;;;;;;1.20;0.87;;;14.00;62.80;;;;;;6528093;22;20461;-67
2024/04/18 13:02:45;;;;;;;6.43;1.40;;;14.00;63.10;;;;;;6527210;22;20497;-67
2024/04/18 13:05:14;;;;;;;1.97;1.10;;;13.70;59.20;;;;;;6527273;21;20893;-68
2024/04/18 13:07:42;;;;;;;1.70;0.90;;;13.40;58.70;;;;;;6527835;22;20460;-67
2024/04/18 13:10:14;;;;;;;1.13;0.90;;;13.20;59.00;;;;;;6527168;22;20512;-66